Concepcion del Uruguay, Argentina
Current Conditions -  °F | °C
As of 10:00 PM on Tuesday 27 Jan 2015 (Local Time) from SADF Reporting Station
Clear Clear  
Wind Chill: 29°   Ceiling: Unl
Heat Index: 33°   Visibility: 6mi
Dew Point: 23°   Wind: 7mph
Humidity: 70%   Direction: 20°NNE
Pressure: 29.71"   Gusts: NA
Location:  32.58°S, 58.58°W
Report Text: SADF 280100Z 02006KT CAVOK 29/23 Q1006
Loading
Personal Weather Stations






























Interactive Weather Map New forecast layout! Learn more

10-Day Weather Forecast

Advertisements
Track Severe Weather on mobile